SVA167 OEJN-EDDF
Flight info
| Callsign | SVA167 |
|---|---|
| Flight time | N/A |
| Altitude | 36000 |
| Route | BOMOX M686 OTEMO T55 TANSA DCT EVIVI DCT OKANA/N0477F380 DCT NANER DCT SIVLA DCT MUREG DCT GRZ DCT SIMBA DCT AKINI T161 DEBHI DEBHI1B |
| Aircraft | B77W/H-SDE1E2E3FGHIJ2J3J4J5M1RWXYZ/LB1D1 |
Departure
| Time | 2026-05-05 11:01 |
|---|---|
| Airport | King Abdulaziz International Airport (OEJN) |
Arrival
| Time | N/A |
|---|---|
| Airport | Frankfurt Main Airport (EDDF) |
| Time | Latitude | Longitude | Altitude | Speed | Heading |
|---|---|---|---|---|---|
| 2026-05-05 10:28 | 21.66337 | 39.17100 | 35 ft | 0 kts | 103° |
| 2026-05-05 10:51 | 21.66337 | 39.17096 | 34 ft | 3 kts | 103° |
| 2026-05-05 10:51 | 21.66343 | 39.17068 | 35 ft | 4 kts | 102° |
| 2026-05-05 10:52 | 21.66350 | 39.17040 | 35 ft | 4 kts | 109° |
| 2026-05-05 10:52 | 21.66359 | 39.17017 | 35 ft | 4 kts | 133° |
| 2026-05-05 10:52 | 21.66378 | 39.17008 | 35 ft | 4 kts | 197° |
| 2026-05-05 10:52 | 21.66403 | 39.17018 | 35 ft | 4 kts | 192° |
| 2026-05-05 10:53 | 21.66409 | 39.17020 | 35 ft | 0 kts | 186° |
| 2026-05-05 10:57 | 21.66391 | 39.17017 | 35 ft | 8 kts | 188° |
| 2026-05-05 10:57 | 21.66331 | 39.17000 | 35 ft | 9 kts | 205° |
| 2026-05-05 10:57 | 21.66294 | 39.16953 | 35 ft | 8 kts | 244° |
| 2026-05-05 10:57 | 21.66273 | 39.16896 | 35 ft | 8 kts | 250° |
| 2026-05-05 10:58 | 21.66253 | 39.16838 | 35 ft | 8 kts | 250° |
| 2026-05-05 10:58 | 21.66234 | 39.16781 | 35 ft | 8 kts | 250° |
| 2026-05-05 10:58 | 21.66214 | 39.16724 | 36 ft | 8 kts | 250° |
| 2026-05-05 10:58 | 21.66195 | 39.16668 | 36 ft | 8 kts | 250° |
| 2026-05-05 10:59 | 21.66175 | 39.16611 | 35 ft | 8 kts | 250° |
| 2026-05-05 10:59 | 21.66156 | 39.16553 | 35 ft | 8 kts | 250° |
| 2026-05-05 10:59 | 21.66151 | 39.16495 | 35 ft | 8 kts | 296° |
| 2026-05-05 10:59 | 21.66198 | 39.16461 | 35 ft | 9 kts | 338° |
| 2026-05-05 11:00 | 21.66377 | 39.16389 | 38 ft | 59 kts | 340° |
| 2026-05-05 11:00 | 21.66983 | 39.16150 | 42 ft | 125 kts | 340° |
| 2026-05-05 11:00 | 21.67982 | 39.15755 | 41 ft | 178 kts | 340° |
| 2026-05-05 11:00 | 21.69170 | 39.15297 | 534 ft | 178 kts | 339° |
| 2026-05-05 11:01 | 21.70338 | 39.14830 | 1123 ft | 182 kts | 339° |
| 2026-05-05 11:01 | 21.71541 | 39.14340 | 1634 ft | 187 kts | 339° |
| 2026-05-05 11:01 | 21.72789 | 39.13824 | 2051 ft | 202 kts | 339° |
| 2026-05-05 11:01 | 21.74175 | 39.13272 | 2279 ft | 225 kts | 339° |
| 2026-05-05 11:02 | 21.75740 | 39.12648 | 2471 ft | 255 kts | 339° |
| 2026-05-05 11:02 | 21.77449 | 39.11952 | 2978 ft | 267 kts | 339° |
| 2026-05-05 11:02 | 21.79194 | 39.11266 | 3781 ft | 267 kts | 340° |
| 2026-05-05 11:02 | 21.80962 | 39.10593 | 4523 ft | 271 kts | 340° |
| 2026-05-05 11:03 | 21.82751 | 39.09912 | 5220 ft | 275 kts | 340° |
| 2026-05-05 11:03 | 21.84565 | 39.09203 | 5851 ft | 279 kts | 340° |
| 2026-05-05 11:03 | 21.86401 | 39.08479 | 5999 ft | 285 kts | 340° |
| 2026-05-05 11:03 | 21.88268 | 39.07744 | 6002 ft | 286 kts | 340° |
| 2026-05-05 11:04 | 21.90129 | 39.06996 | 6004 ft | 284 kts | 338° |
| 2026-05-05 11:04 | 21.91926 | 39.06157 | 6014 ft | 281 kts | 335° |
| 2026-05-05 11:04 | 21.93705 | 39.05287 | 5995 ft | 281 kts | 335° |
| 2026-05-05 11:04 | 21.95486 | 39.04420 | 6003 ft | 280 kts | 336° |
| 2026-05-05 11:05 | 21.97272 | 39.03561 | 6020 ft | 282 kts | 336° |
| 2026-05-05 11:05 | 21.99069 | 39.02697 | 6011 ft | 282 kts | 336° |
| 2026-05-05 11:05 | 22.00844 | 39.01849 | 5999 ft | 283 kts | 336° |
| 2026-05-05 11:05 | 22.02670 | 39.00977 | 6440 ft | 283 kts | 336° |
| 2026-05-05 11:06 | 22.04456 | 39.00122 | 7194 ft | 285 kts | 336° |
| 2026-05-05 11:06 | 22.06277 | 38.99253 | 7881 ft | 289 kts | 336° |
| 2026-05-05 11:06 | 22.08128 | 38.98370 | 8521 ft | 292 kts | 335° |
| 2026-05-05 11:06 | 22.10000 | 38.97474 | 9173 ft | 296 kts | 335° |
| 2026-05-05 11:07 | 22.11890 | 38.96568 | 9817 ft | 298 kts | 335° |
| 2026-05-05 11:07 | 22.13804 | 38.95652 | 10389 ft | 306 kts | 335° |
| 2026-05-05 11:07 | 22.15822 | 38.94684 | 10567 ft | 329 kts | 335° |
| 2026-05-05 11:07 | 22.17988 | 38.93645 | 10766 ft | 352 kts | 335° |
| 2026-05-05 11:08 | 22.20291 | 38.92542 | 10930 ft | 373 kts | 335° |
| 2026-05-05 11:08 | 22.22719 | 38.91381 | 11393 ft | 387 kts | 335° |
| 2026-05-05 11:08 | 22.25138 | 38.90084 | 11911 ft | 390 kts | 324° |
| 2026-05-05 11:08 | 22.27049 | 38.88009 | 12569 ft | 393 kts | 302° |
| 2026-05-05 11:09 | 22.28391 | 38.85455 | 13290 ft | 393 kts | 297° |
| 2026-05-05 11:09 | 22.29729 | 38.82848 | 14027 ft | 399 kts | 298° |
| 2026-05-05 11:09 | 22.31104 | 38.80225 | 14836 ft | 403 kts | 298° |
| 2026-05-05 11:09 | 22.32496 | 38.77590 | 15646 ft | 406 kts | 298° |
| 2026-05-05 11:10 | 22.33911 | 38.74923 | 16406 ft | 410 kts | 298° |
| 2026-05-05 11:10 | 22.35338 | 38.72236 | 17128 ft | 415 kts | 298° |
| 2026-05-05 11:10 | 22.36763 | 38.69550 | 17849 ft | 419 kts | 298° |
| 2026-05-05 11:10 | 22.38238 | 38.66769 | 18572 ft | 423 kts | 298° |
| 2026-05-05 11:11 | 22.39709 | 38.63995 | 19281 ft | 427 kts | 298° |
| 2026-05-05 11:11 | 22.41189 | 38.61201 | 19973 ft | 430 kts | 298° |
| 2026-05-05 11:11 | 22.42681 | 38.58379 | 20601 ft | 434 kts | 298° |
| 2026-05-05 11:11 | 22.44187 | 38.55532 | 21237 ft | 438 kts | 298° |
| 2026-05-05 11:12 | 22.45705 | 38.52663 | 21874 ft | 441 kts | 298° |
| 2026-05-05 11:12 | 22.47229 | 38.49781 | 22477 ft | 444 kts | 298° |
| 2026-05-05 11:12 | 22.48768 | 38.46871 | 23040 ft | 446 kts | 298° |
| 2026-05-05 11:12 | 22.50589 | 38.44127 | 23471 ft | 455 kts | 313° |
| 2026-05-05 11:13 | 22.53021 | 38.41934 | 23876 ft | 458 kts | 320° |
| 2026-05-05 11:13 | 22.55572 | 38.39831 | 24298 ft | 463 kts | 320° |
| 2026-05-05 11:13 | 22.58139 | 38.37704 | 24800 ft | 466 kts | 320° |
| 2026-05-05 11:13 | 22.60702 | 38.35550 | 25303 ft | 468 kts | 320° |
| 2026-05-05 11:14 | 22.62401 | 38.34107 | 25614 ft | 470 kts | 319° |
| 2026-05-05 11:14 | 22.64973 | 38.31906 | 26083 ft | 472 kts | 319° |
| 2026-05-05 11:14 | 22.68389 | 38.28958 | 26646 ft | 476 kts | 319° |
| 2026-05-05 11:14 | 22.70141 | 38.27441 | 26930 ft | 478 kts | 319° |
| 2026-05-05 11:15 | 22.72743 | 38.25183 | 27357 ft | 480 kts | 318° |
| 2026-05-05 11:15 | 22.75355 | 38.22915 | 27783 ft | 482 kts | 318° |
| 2026-05-05 11:15 | 22.77980 | 38.20636 | 28143 ft | 485 kts | 318° |
| 2026-05-05 11:15 | 22.80623 | 38.18338 | 28499 ft | 488 kts | 318° |
| 2026-05-05 11:16 | 22.83277 | 38.16032 | 28855 ft | 490 kts | 318° |
| 2026-05-05 11:16 | 22.85943 | 38.13715 | 29183 ft | 492 kts | 318° |
| 2026-05-05 11:16 | 22.88620 | 38.11388 | 29494 ft | 494 kts | 318° |
| 2026-05-05 11:16 | 22.91321 | 38.09040 | 29799 ft | 496 kts | 318° |
| 2026-05-05 11:17 | 22.94015 | 38.06697 | 30163 ft | 496 kts | 317° |
| 2026-05-05 11:17 | 22.96706 | 38.04354 | 30593 ft | 494 kts | 317° |
| 2026-05-05 11:17 | 22.99381 | 38.02024 | 31033 ft | 493 kts | 317° |
| 2026-05-05 11:17 | 23.02052 | 37.99696 | 31448 ft | 492 kts | 317° |
| 2026-05-05 11:18 | 23.04719 | 37.97371 | 31822 ft | 491 kts | 317° |
| 2026-05-05 11:18 | 23.07383 | 37.95048 | 32240 ft | 490 kts | 317° |
| 2026-05-05 11:18 | 23.09997 | 37.92766 | 32615 ft | 489 kts | 317° |
| 2026-05-05 11:18 | 23.12648 | 37.90451 | 32957 ft | 488 kts | 317° |
| 2026-05-05 11:19 | 23.15291 | 37.88140 | 33307 ft | 488 kts | 317° |
| 2026-05-05 11:19 | 23.17930 | 37.85832 | 33645 ft | 487 kts | 317° |
| 2026-05-05 11:19 | 23.20567 | 37.83525 | 33986 ft | 486 kts | 317° |
| 2026-05-05 11:19 | 23.23209 | 37.81213 | 34296 ft | 486 kts | 316° |
| 2026-05-05 11:20 | 23.25833 | 37.78915 | 34621 ft | 485 kts | 316° |
| 2026-05-05 11:20 | 23.28459 | 37.76613 | 34932 ft | 484 kts | 316° |
| 2026-05-05 11:20 | 23.31079 | 37.74315 | 35212 ft | 484 kts | 316° |
| 2026-05-05 11:20 | 23.33698 | 37.72019 | 35488 ft | 483 kts | 316° |
| 2026-05-05 11:21 | 23.36312 | 37.69727 | 35733 ft | 484 kts | 316° |
| 2026-05-05 11:21 | 23.41594 | 37.65086 | 35820 ft | 487 kts | 316° |
| 2026-05-05 11:22 | 23.46843 | 37.60469 | 35812 ft | 482 kts | 316° |
| 2026-05-05 11:22 | 23.52041 | 37.55893 | 35824 ft | 479 kts | 316° |
| 2026-05-05 11:23 | 23.57217 | 37.51330 | 35825 ft | 479 kts | 316° |
| 2026-05-05 11:23 | 23.62400 | 37.46759 | 35823 ft | 479 kts | 316° |
| 2026-05-05 11:24 | 23.67581 | 37.42177 | 35824 ft | 480 kts | 316° |
| 2026-05-05 11:24 | 23.72774 | 37.37583 | 35833 ft | 481 kts | 316° |
| 2026-05-05 11:25 | 23.77987 | 37.32970 | 35824 ft | 483 kts | 316° |
| 2026-05-05 11:25 | 23.83207 | 37.28343 | 35823 ft | 484 kts | 316° |
| 2026-05-05 11:26 | 23.88438 | 37.23703 | 35825 ft | 484 kts | 316° |
| 2026-05-05 11:26 | 23.93662 | 37.19064 | 35823 ft | 484 kts | 316° |
| 2026-05-05 11:27 | 23.98876 | 37.14430 | 35829 ft | 483 kts | 316° |
| 2026-05-05 11:27 | 24.04083 | 37.09797 | 35832 ft | 482 kts | 316° |
| 2026-05-05 11:28 | 24.09250 | 37.05192 | 35832 ft | 481 kts | 316° |
| 2026-05-05 11:28 | 24.14470 | 37.00535 | 35833 ft | 480 kts | 316° |
| 2026-05-05 11:29 | 24.19621 | 36.95937 | 35841 ft | 479 kts | 316° |
| 2026-05-05 11:29 | 24.24781 | 36.91322 | 35859 ft | 479 kts | 316° |
| 2026-05-05 11:30 | 24.29939 | 36.86707 | 35861 ft | 479 kts | 316° |
| 2026-05-05 11:30 | 24.35095 | 36.82089 | 35872 ft | 479 kts | 316° |
| 2026-05-05 11:31 | 24.40254 | 36.77460 | 35881 ft | 480 kts | 316° |
| 2026-05-05 11:31 | 24.45423 | 36.72821 | 35884 ft | 480 kts | 316° |
| 2026-05-05 11:32 | 24.50591 | 36.68174 | 35870 ft | 480 kts | 316° |
| 2026-05-05 11:32 | 24.55753 | 36.63529 | 35890 ft | 480 kts | 316° |
| 2026-05-05 11:33 | 24.60563 | 36.58544 | 35883 ft | 470 kts | 302° |
| 2026-05-05 11:33 | 24.63815 | 36.52420 | 35887 ft | 460 kts | 287° |
| 2026-05-05 11:34 | 24.65846 | 36.45769 | 35898 ft | 459 kts | 284° |
| 2026-05-05 11:34 | 24.67854 | 36.39098 | 35901 ft | 460 kts | 285° |
| 2026-05-05 11:35 | 24.69914 | 36.32431 | 35899 ft | 461 kts | 285° |
| 2026-05-05 11:35 | 24.71984 | 36.25757 | 35905 ft | 461 kts | 285° |
| 2026-05-05 11:36 | 24.74050 | 36.19061 | 35908 ft | 462 kts | 285° |
| 2026-05-05 11:36 | 24.76112 | 36.12370 | 35906 ft | 461 kts | 285° |
| 2026-05-05 11:37 | 24.78166 | 36.05686 | 35910 ft | 460 kts | 285° |
| 2026-05-05 11:37 | 24.80214 | 35.99017 | 35916 ft | 459 kts | 285° |
| 2026-05-05 11:38 | 24.82251 | 35.92364 | 35916 ft | 459 kts | 285° |
| 2026-05-05 11:38 | 24.84285 | 35.85714 | 35919 ft | 459 kts | 285° |
| 2026-05-05 11:39 | 24.86315 | 35.79056 | 35932 ft | 458 kts | 285° |
| 2026-05-05 11:39 | 24.88346 | 35.72394 | 35934 ft | 459 kts | 285° |
| 2026-05-05 11:40 | 24.90375 | 35.65724 | 35937 ft | 459 kts | 285° |
| 2026-05-05 11:40 | 24.92401 | 35.59044 | 35945 ft | 459 kts | 285° |
| 2026-05-05 11:41 | 24.94423 | 35.52373 | 35945 ft | 460 kts | 285° |
| 2026-05-05 11:41 | 24.96445 | 35.45692 | 35944 ft | 460 kts | 285° |
| 2026-05-05 11:42 | 24.98455 | 35.39033 | 35945 ft | 460 kts | 285° |
| 2026-05-05 11:42 | 25.00469 | 35.32345 | 35955 ft | 459 kts | 285° |
| 2026-05-05 11:43 | 25.02481 | 35.25663 | 35953 ft | 460 kts | 285° |
| 2026-05-05 11:43 | 25.04501 | 35.18977 | 35954 ft | 460 kts | 287° |
| 2026-05-05 11:44 | 25.07518 | 35.12710 | 35959 ft | 467 kts | 300° |
| 2026-05-05 11:44 | 25.11772 | 35.07240 | 35965 ft | 473 kts | 310° |
| 2026-05-05 11:45 | 25.16517 | 35.02192 | 35963 ft | 474 kts | 311° |
| 2026-05-05 11:45 | 25.21261 | 34.97136 | 35963 ft | 474 kts | 311° |
| 2026-05-05 11:46 | 25.25972 | 34.92037 | 35962 ft | 474 kts | 310° |
| 2026-05-05 11:46 | 25.30670 | 34.86915 | 35964 ft | 474 kts | 310° |
| 2026-05-05 11:47 | 25.35365 | 34.81789 | 35964 ft | 474 kts | 310° |
| 2026-05-05 11:47 | 25.40055 | 34.76672 | 35963 ft | 474 kts | 310° |
| 2026-05-05 11:48 | 25.47078 | 34.68996 | 35961 ft | 473 kts | 310° |
| 2026-05-05 11:48 | 25.51731 | 34.63902 | 35966 ft | 473 kts | 310° |
| 2026-05-05 11:49 | 25.56406 | 34.58782 | 35962 ft | 473 kts | 310° |
| 2026-05-05 11:49 | 25.60876 | 34.53469 | 35968 ft | 469 kts | 306° |
| 2026-05-05 11:50 | 25.65091 | 34.47961 | 35966 ft | 468 kts | 306° |
| 2026-05-05 11:50 | 25.69309 | 34.42438 | 35965 ft | 468 kts | 306° |
| 2026-05-05 11:51 | 25.73531 | 34.36937 | 35967 ft | 468 kts | 306° |
| 2026-05-05 11:51 | 25.77759 | 34.31437 | 35972 ft | 469 kts | 306° |
| 2026-05-05 11:52 | 25.81965 | 34.25960 | 35975 ft | 469 kts | 306° |
| 2026-05-05 11:52 | 25.86188 | 34.20451 | 35968 ft | 469 kts | 306° |
| 2026-05-05 11:53 | 25.90415 | 34.14930 | 35975 ft | 469 kts | 306° |
| 2026-05-05 11:53 | 25.94633 | 34.09412 | 35972 ft | 468 kts | 306° |
| 2026-05-05 11:54 | 25.98848 | 34.03892 | 35969 ft | 468 kts | 306° |
| 2026-05-05 11:54 | 26.03054 | 33.98375 | 35974 ft | 467 kts | 306° |
| 2026-05-05 11:55 | 26.06545 | 33.93788 | 35992 ft | 467 kts | 306° |
| 2026-05-05 11:55 | 26.10743 | 33.88265 | 35976 ft | 467 kts | 306° |
| 2026-05-05 11:56 | 26.14942 | 33.82742 | 35981 ft | 467 kts | 306° |
| 2026-05-05 11:56 | 26.19141 | 33.77213 | 35980 ft | 467 kts | 306° |
| 2026-05-05 11:57 | 26.23333 | 33.71674 | 35991 ft | 468 kts | 306° |
| 2026-05-05 11:57 | 26.27533 | 33.66125 | 35981 ft | 469 kts | 306° |
| 2026-05-05 11:58 | 26.31733 | 33.60567 | 35996 ft | 468 kts | 306° |
| 2026-05-05 11:58 | 26.35921 | 33.55019 | 35983 ft | 468 kts | 306° |
| 2026-05-05 11:59 | 26.40108 | 33.49467 | 36001 ft | 467 kts | 306° |
| 2026-05-05 11:59 | 26.44290 | 33.43914 | 36007 ft | 467 kts | 306° |
| 2026-05-05 12:00 | 26.48469 | 33.38359 | 35995 ft | 468 kts | 306° |
| 2026-05-05 12:00 | 26.52648 | 33.32797 | 36000 ft | 468 kts | 306° |
| 2026-05-05 12:01 | 26.56831 | 33.27218 | 36002 ft | 468 kts | 306° |
| 2026-05-05 12:01 | 26.61004 | 33.21647 | 36003 ft | 467 kts | 306° |
| 2026-05-05 12:02 | 26.65172 | 33.16077 | 36000 ft | 467 kts | 306° |
| 2026-05-05 12:02 | 26.69338 | 33.10500 | 35997 ft | 467 kts | 306° |
| 2026-05-05 12:03 | 26.73466 | 33.04970 | 36003 ft | 466 kts | 306° |
| 2026-05-05 12:03 | 26.77616 | 32.99400 | 36012 ft | 466 kts | 306° |
| 2026-05-05 12:04 | 26.81767 | 32.93825 | 36011 ft | 466 kts | 306° |
| 2026-05-05 12:04 | 26.85915 | 32.88245 | 36012 ft | 466 kts | 306° |
| 2026-05-05 12:05 | 26.90064 | 32.82657 | 36006 ft | 466 kts | 306° |
| 2026-05-05 12:05 | 26.94210 | 32.77068 | 36013 ft | 466 kts | 306° |
| 2026-05-05 12:06 | 26.98345 | 32.71487 | 36023 ft | 465 kts | 306° |
| 2026-05-05 12:06 | 27.02474 | 32.65902 | 36030 ft | 465 kts | 306° |
| 2026-05-05 12:07 | 27.06600 | 32.60313 | 36018 ft | 464 kts | 306° |
| 2026-05-05 12:07 | 27.10720 | 32.54732 | 36015 ft | 464 kts | 306° |
| 2026-05-05 12:08 | 27.14838 | 32.49142 | 36016 ft | 465 kts | 306° |
| 2026-05-05 12:08 | 27.18957 | 32.43545 | 36009 ft | 465 kts | 306° |
| 2026-05-05 12:09 | 27.23075 | 32.37941 | 36009 ft | 465 kts | 306° |
| 2026-05-05 12:09 | 27.27174 | 32.32359 | 36008 ft | 465 kts | 306° |
| 2026-05-05 12:10 | 27.31271 | 32.26736 | 36009 ft | 464 kts | 305° |
| 2026-05-05 12:10 | 27.35224 | 32.21000 | 36008 ft | 463 kts | 304° |
| 2026-05-05 12:11 | 27.39130 | 32.15236 | 36009 ft | 463 kts | 304° |
| 2026-05-05 12:11 | 27.43048 | 32.09476 | 36010 ft | 463 kts | 304° |
| 2026-05-05 12:12 | 27.46969 | 32.03734 | 36020 ft | 462 kts | 304° |
| 2026-05-05 12:12 | 27.50883 | 31.98002 | 36070 ft | 461 kts | 304° |
| 2026-05-05 12:13 | 27.54786 | 31.92277 | 36083 ft | 460 kts | 304° |
| 2026-05-05 12:13 | 27.58685 | 31.86553 | 36091 ft | 460 kts | 304° |
| 2026-05-05 12:14 | 27.62581 | 31.80823 | 36093 ft | 461 kts | 304° |
| 2026-05-05 12:14 | 27.66477 | 31.75083 | 36105 ft | 461 kts | 304° |
| 2026-05-05 12:15 | 27.70355 | 31.69367 | 36099 ft | 461 kts | 304° |
| 2026-05-05 12:15 | 27.74254 | 31.63609 | 36100 ft | 462 kts | 304° |
| 2026-05-05 12:16 | 27.78150 | 31.57851 | 36102 ft | 462 kts | 304° |
| 2026-05-05 12:16 | 27.82051 | 31.52076 | 36102 ft | 462 kts | 304° |
| 2026-05-05 12:17 | 27.85947 | 31.46302 | 36103 ft | 462 kts | 304° |
| 2026-05-05 12:17 | 27.89836 | 31.40522 | 36105 ft | 462 kts | 304° |
| 2026-05-05 12:18 | 27.93723 | 31.34743 | 36103 ft | 461 kts | 304° |
| 2026-05-05 12:18 | 27.97608 | 31.28964 | 36112 ft | 461 kts | 304° |
| 2026-05-05 12:19 | 28.01490 | 31.23178 | 36114 ft | 461 kts | 304° |
| 2026-05-05 12:19 | 28.05373 | 31.17385 | 36117 ft | 461 kts | 304° |
| 2026-05-05 12:20 | 28.09116 | 31.11500 | 36110 ft | 459 kts | 301° |
| 2026-05-05 12:20 | 28.12657 | 31.05486 | 36110 ft | 459 kts | 300° |
| 2026-05-05 12:21 | 28.16183 | 30.99453 | 36111 ft | 458 kts | 300° |
| 2026-05-05 12:21 | 28.19714 | 30.93438 | 36118 ft | 458 kts | 301° |
| 2026-05-05 12:22 | 28.23250 | 30.87418 | 36126 ft | 458 kts | 301° |
| 2026-05-05 12:22 | 28.26785 | 30.81405 | 36127 ft | 458 kts | 301° |
| 2026-05-05 12:23 | 28.30320 | 30.75384 | 36130 ft | 459 kts | 301° |
| 2026-05-05 12:23 | 28.33859 | 30.69345 | 36127 ft | 459 kts | 301° |
| 2026-05-05 12:24 | 28.37395 | 30.63303 | 36130 ft | 459 kts | 301° |
| 2026-05-05 12:24 | 28.40924 | 30.57255 | 36128 ft | 459 kts | 301° |
| 2026-05-05 12:25 | 28.44439 | 30.51231 | 36132 ft | 460 kts | 301° |
| 2026-05-05 12:25 | 28.47971 | 30.45168 | 36119 ft | 460 kts | 301° |
| 2026-05-05 12:26 | 28.51496 | 30.39107 | 36119 ft | 459 kts | 301° |
| 2026-05-05 12:26 | 28.55019 | 30.33044 | 36118 ft | 460 kts | 301° |
| 2026-05-05 12:27 | 28.58541 | 30.26976 | 36118 ft | 459 kts | 300° |
| 2026-05-05 12:27 | 28.62058 | 30.20904 | 36117 ft | 459 kts | 300° |
| 2026-05-05 12:28 | 28.65567 | 30.14830 | 36115 ft | 459 kts | 300° |
| 2026-05-05 12:28 | 28.69076 | 30.08756 | 36112 ft | 459 kts | 300° |
| 2026-05-05 12:29 | 28.72582 | 30.02678 | 36113 ft | 459 kts | 300° |
| 2026-05-05 12:29 | 28.76082 | 29.96600 | 36112 ft | 459 kts | 301° |
| 2026-05-05 12:30 | 28.79578 | 29.90519 | 36114 ft | 459 kts | 301° |
| 2026-05-05 12:30 | 28.83075 | 29.84428 | 36111 ft | 459 kts | 300° |
| 2026-05-05 12:31 | 28.86569 | 29.78335 | 36111 ft | 459 kts | 300° |
| 2026-05-05 12:31 | 28.90065 | 29.72232 | 36111 ft | 459 kts | 300° |
| 2026-05-05 12:32 | 28.93549 | 29.66133 | 36110 ft | 458 kts | 300° |
| 2026-05-05 12:32 | 28.97033 | 29.60034 | 36112 ft | 459 kts | 300° |
| 2026-05-05 12:33 | 29.00515 | 29.53923 | 36113 ft | 459 kts | 300° |
| 2026-05-05 12:33 | 29.03994 | 29.47812 | 36109 ft | 459 kts | 300° |
| 2026-05-05 12:34 | 29.07470 | 29.41692 | 36108 ft | 459 kts | 300° |
| 2026-05-05 12:34 | 29.10430 | 29.36663 | 36104 ft | 460 kts | 306° |
| 2026-05-05 12:35 | 29.15176 | 29.31684 | 36110 ft | 467 kts | 321° |
| 2026-05-05 12:35 | 29.20920 | 29.28125 | 36112 ft | 472 kts | 331° |
| 2026-05-05 12:36 | 29.26877 | 29.24944 | 36109 ft | 473 kts | 331° |
| 2026-05-05 12:36 | 29.32835 | 29.21738 | 36113 ft | 473 kts | 330° |
| 2026-05-05 12:37 | 29.38769 | 29.18487 | 36109 ft | 473 kts | 330° |
| 2026-05-05 12:37 | 29.44692 | 29.15214 | 36107 ft | 472 kts | 330° |
| 2026-05-05 12:38 | 29.50615 | 29.11933 | 36109 ft | 472 kts | 330° |
| 2026-05-05 12:38 | 29.56526 | 29.08656 | 36117 ft | 471 kts | 330° |
| 2026-05-05 12:39 | 29.62439 | 29.05376 | 36120 ft | 471 kts | 330° |
| 2026-05-05 12:39 | 29.68304 | 29.02120 | 36119 ft | 471 kts | 330° |
| 2026-05-05 12:40 | 29.74209 | 28.98836 | 36121 ft | 471 kts | 330° |
| 2026-05-05 12:40 | 29.80114 | 28.95548 | 36122 ft | 470 kts | 330° |
| 2026-05-05 12:41 | 29.86004 | 28.92264 | 36119 ft | 470 kts | 330° |
| 2026-05-05 12:41 | 29.91890 | 28.88978 | 36121 ft | 470 kts | 330° |
| 2026-05-05 12:42 | 29.97744 | 28.85705 | 36117 ft | 470 kts | 330° |
| 2026-05-05 12:42 | 30.03641 | 28.82403 | 36121 ft | 470 kts | 330° |
| 2026-05-05 12:43 | 30.09527 | 28.79103 | 36117 ft | 470 kts | 330° |
| 2026-05-05 12:43 | 30.15402 | 28.75806 | 36123 ft | 469 kts | 330° |
| 2026-05-05 12:44 | 30.21275 | 28.72501 | 36124 ft | 469 kts | 330° |
| 2026-05-05 12:44 | 30.27144 | 28.69197 | 36115 ft | 469 kts | 330° |
| 2026-05-05 12:45 | 30.33007 | 28.65897 | 36123 ft | 468 kts | 330° |
| 2026-05-05 12:45 | 30.38868 | 28.62590 | 36117 ft | 468 kts | 330° |
| 2026-05-05 12:46 | 30.44714 | 28.59287 | 36122 ft | 467 kts | 330° |
| 2026-05-05 12:46 | 30.50550 | 28.55984 | 36126 ft | 467 kts | 330° |
| 2026-05-05 12:47 | 30.56397 | 28.52671 | 36126 ft | 467 kts | 330° |
| 2026-05-05 12:47 | 30.62202 | 28.49378 | 36125 ft | 467 kts | 330° |
| 2026-05-05 12:48 | 30.68037 | 28.46066 | 36127 ft | 467 kts | 330° |
| 2026-05-05 12:48 | 30.73871 | 28.42743 | 36126 ft | 467 kts | 330° |
| 2026-05-05 12:49 | 30.79746 | 28.39396 | 36125 ft | 467 kts | 330° |
| 2026-05-05 12:49 | 30.85579 | 28.36067 | 36135 ft | 467 kts | 330° |
| 2026-05-05 12:50 | 30.91408 | 28.32741 | 36123 ft | 466 kts | 330° |
| 2026-05-05 12:50 | 30.97235 | 28.29409 | 36125 ft | 466 kts | 330° |
| 2026-05-05 12:51 | 31.03017 | 28.26098 | 36125 ft | 466 kts | 330° |
| 2026-05-05 12:51 | 31.08839 | 28.22755 | 36138 ft | 466 kts | 330° |
| 2026-05-05 12:52 | 31.14652 | 28.19414 | 36128 ft | 465 kts | 330° |
| 2026-05-05 12:52 | 31.20449 | 28.16081 | 36127 ft | 464 kts | 330° |
| 2026-05-05 12:53 | 31.26241 | 28.12748 | 36128 ft | 464 kts | 330° |
| 2026-05-05 12:53 | 31.32021 | 28.09412 | 36145 ft | 463 kts | 330° |
| 2026-05-05 12:54 | 31.40704 | 28.04395 | 36130 ft | 462 kts | 330° |
| 2026-05-05 12:55 | 31.46470 | 28.01058 | 36146 ft | 462 kts | 330° |
| 2026-05-05 12:55 | 31.52341 | 27.97934 | 36149 ft | 464 kts | 335° |
| 2026-05-05 12:56 | 31.58368 | 27.95227 | 36134 ft | 464 kts | 336° |
| 2026-05-05 12:56 | 31.64392 | 27.92524 | 36146 ft | 463 kts | 335° |
| 2026-05-05 12:57 | 31.70404 | 27.89792 | 36148 ft | 463 kts | 335° |
| 2026-05-05 12:57 | 31.76405 | 27.87051 | 36146 ft | 463 kts | 335° |
| 2026-05-05 12:58 | 31.82402 | 27.84306 | 36148 ft | 463 kts | 335° |
| 2026-05-05 12:58 | 31.88398 | 27.81561 | 36150 ft | 462 kts | 335° |
| 2026-05-05 12:59 | 31.94394 | 27.78806 | 36148 ft | 462 kts | 335° |
| 2026-05-05 12:59 | 32.00347 | 27.76058 | 36140 ft | 463 kts | 335° |
| 2026-05-05 13:00 | 32.09344 | 27.71899 | 36141 ft | 463 kts | 335° |
| 2026-05-05 13:01 | 32.21341 | 27.66341 | 36143 ft | 463 kts | 335° |
| 2026-05-05 13:01 | 32.27334 | 27.63559 | 36130 ft | 463 kts | 335° |
| 2026-05-05 13:02 | 32.33322 | 27.60778 | 36138 ft | 462 kts | 335° |
| 2026-05-05 13:02 | 32.39319 | 27.57996 | 36144 ft | 463 kts | 335° |
| 2026-05-05 13:03 | 32.45316 | 27.55217 | 36135 ft | 463 kts | 335° |
| 2026-05-05 13:03 | 32.51309 | 27.52432 | 36124 ft | 463 kts | 335° |
| 2026-05-05 13:04 | 32.57305 | 27.49640 | 36130 ft | 462 kts | 335° |
| 2026-05-05 13:04 | 32.63300 | 27.46842 | 36130 ft | 462 kts | 335° |
| 2026-05-05 13:05 | 32.69291 | 27.44048 | 36128 ft | 462 kts | 335° |
| 2026-05-05 13:05 | 32.75273 | 27.41248 | 36126 ft | 462 kts | 335° |
| 2026-05-05 13:06 | 32.81256 | 27.38431 | 36124 ft | 462 kts | 335° |
| 2026-05-05 13:06 | 32.87241 | 27.35610 | 36121 ft | 462 kts | 335° |
| 2026-05-05 13:07 | 32.93217 | 27.32790 | 36124 ft | 462 kts | 335° |
| 2026-05-05 13:07 | 32.99192 | 27.29964 | 36117 ft | 462 kts | 335° |
| 2026-05-05 13:08 | 33.05140 | 27.27152 | 36109 ft | 462 kts | 335° |
| 2026-05-05 13:08 | 33.11156 | 27.24303 | 36113 ft | 462 kts | 335° |
| 2026-05-05 13:09 | 33.17093 | 27.21487 | 36107 ft | 462 kts | 335° |
| 2026-05-05 13:09 | 33.23068 | 27.18644 | 36095 ft | 462 kts | 335° |
| 2026-05-05 13:10 | 33.29053 | 27.15795 | 36091 ft | 462 kts | 335° |
| 2026-05-05 13:10 | 33.35027 | 27.12949 | 36092 ft | 462 kts | 335° |
| 2026-05-05 13:11 | 33.41000 | 27.10098 | 36101 ft | 462 kts | 335° |
| 2026-05-05 13:11 | 33.46975 | 27.07243 | 36103 ft | 462 kts | 335° |
| 2026-05-05 13:12 | 33.52955 | 27.04378 | 36102 ft | 462 kts | 335° |
| 2026-05-05 13:12 | 33.58925 | 27.01516 | 36095 ft | 462 kts | 335° |
| 2026-05-05 13:13 | 33.64890 | 26.98653 | 36092 ft | 462 kts | 335° |
| 2026-05-05 13:13 | 33.70821 | 26.95798 | 36093 ft | 462 kts | 335° |
| 2026-05-05 13:14 | 33.76778 | 26.92929 | 36093 ft | 461 kts | 335° |
| 2026-05-05 13:14 | 33.82735 | 26.90058 | 36091 ft | 461 kts | 335° |
| 2026-05-05 13:15 | 33.88681 | 26.87183 | 36084 ft | 461 kts | 335° |
| 2026-05-05 13:15 | 33.94632 | 26.84303 | 36081 ft | 461 kts | 335° |
| 2026-05-05 13:16 | 34.00591 | 26.81439 | 36083 ft | 461 kts | 337° |
| 2026-05-05 13:16 | 34.05629 | 26.79314 | 36085 ft | 462 kts | 339° |
| 2026-05-05 13:17 | 34.11722 | 26.76855 | 36083 ft | 462 kts | 339° |
| 2026-05-05 13:17 | 34.17816 | 26.74386 | 36081 ft | 461 kts | 339° |
| 2026-05-05 13:18 | 34.23898 | 26.71894 | 36076 ft | 461 kts | 339° |
| 2026-05-05 13:18 | 34.29974 | 26.69389 | 36074 ft | 461 kts | 339° |
| 2026-05-05 13:19 | 34.36053 | 26.66879 | 36072 ft | 461 kts | 339° |
| 2026-05-05 13:19 | 34.42126 | 26.64370 | 36073 ft | 461 kts | 339° |
| 2026-05-05 13:20 | 34.48199 | 26.61854 | 36074 ft | 461 kts | 339° |
| 2026-05-05 13:20 | 34.54277 | 26.59332 | 36071 ft | 461 kts | 339° |
| 2026-05-05 13:21 | 34.60352 | 26.56809 | 36076 ft | 462 kts | 339° |
| 2026-05-05 13:21 | 34.66403 | 26.54292 | 36073 ft | 462 kts | 339° |
| 2026-05-05 13:22 | 34.72483 | 26.51759 | 36077 ft | 462 kts | 339° |
| 2026-05-05 13:22 | 34.78568 | 26.49220 | 36075 ft | 462 kts | 339° |
| 2026-05-05 13:23 | 34.84657 | 26.46674 | 36073 ft | 462 kts | 339° |
| 2026-05-05 13:23 | 34.90744 | 26.44125 | 36070 ft | 462 kts | 339° |
| 2026-05-05 13:24 | 34.96828 | 26.41577 | 36065 ft | 462 kts | 339° |
| 2026-05-05 13:24 | 35.02910 | 26.39023 | 36063 ft | 462 kts | 339° |
| 2026-05-05 13:25 | 35.08996 | 26.36463 | 36063 ft | 463 kts | 339° |
| 2026-05-05 13:25 | 35.15080 | 26.33901 | 36066 ft | 462 kts | 339° |
| 2026-05-05 13:26 | 35.21160 | 26.31336 | 36077 ft | 462 kts | 339° |
| 2026-05-05 13:26 | 35.27236 | 26.28771 | 36075 ft | 462 kts | 339° |
| 2026-05-05 13:27 | 35.33314 | 26.26196 | 36076 ft | 462 kts | 339° |
| 2026-05-05 13:27 | 35.39393 | 26.23620 | 36074 ft | 462 kts | 339° |
| 2026-05-05 13:28 | 35.45473 | 26.21038 | 36079 ft | 462 kts | 339° |
| 2026-05-05 13:28 | 35.51549 | 26.18452 | 36075 ft | 462 kts | 339° |
| 2026-05-05 13:29 | 35.57590 | 26.15880 | 36073 ft | 462 kts | 339° |
| 2026-05-05 13:29 | 35.63666 | 26.13288 | 36082 ft | 462 kts | 339° |
| 2026-05-05 13:30 | 35.69739 | 26.10694 | 36082 ft | 462 kts | 339° |
| 2026-05-05 13:30 | 35.75814 | 26.08096 | 36083 ft | 462 kts | 339° |
| 2026-05-05 13:31 | 35.81889 | 26.05490 | 36083 ft | 462 kts | 339° |
| 2026-05-05 13:31 | 35.87971 | 26.02877 | 36083 ft | 462 kts | 339° |
| 2026-05-05 13:32 | 35.94049 | 26.00261 | 36083 ft | 462 kts | 339° |
| 2026-05-05 13:32 | 36.00122 | 25.97646 | 36088 ft | 462 kts | 339° |
| 2026-05-05 13:33 | 36.06200 | 25.95025 | 36092 ft | 462 kts | 339° |
| 2026-05-05 13:33 | 36.12272 | 25.92400 | 36093 ft | 462 kts | 339° |
| 2026-05-05 13:34 | 36.18343 | 25.89772 | 36093 ft | 462 kts | 339° |
| 2026-05-05 13:34 | 36.24421 | 25.87137 | 36093 ft | 462 kts | 339° |
| 2026-05-05 13:35 | 36.30496 | 25.84498 | 36095 ft | 463 kts | 339° |